createdAt,value
2018-07-14T00:00:19.017Z,14.33
2018-07-14T00:02:47.538Z,14.00
2018-07-14T00:05:16.129Z,12.23
2018-07-14T00:07:44.607Z,15.73
2018-07-14T00:10:13.085Z,13.73
2018-07-14T00:12:41.670Z,11.80
2018-07-14T00:15:10.230Z,14.67
2018-07-14T00:17:38.774Z,12.67
2018-07-14T00:20:07.314Z,11.73
2018-07-14T00:22:35.790Z,12.67
2018-07-14T00:25:04.374Z,13.10
2018-07-14T00:27:32.824Z,15.07
2018-07-14T00:30:01.353Z,12.17
2018-07-14T00:32:29.862Z,14.33
2018-07-14T00:34:58.363Z,13.17
2018-07-14T00:37:26.909Z,14.43
2018-07-14T00:39:55.513Z,13.43
2018-07-14T00:42:24.006Z,16.23
2018-07-14T00:44:52.477Z,15.13
2018-07-14T00:47:20.986Z,11.40
2018-07-14T00:49:49.560Z,13.87
2018-07-14T00:52:18.077Z,13.83
2018-07-14T00:54:46.546Z,12.07
2018-07-14T00:57:15.030Z,10.13
2018-07-14T00:59:43.637Z,10.30
2018-07-14T01:02:14.978Z,14.47
2018-07-14T01:04:44.204Z,11.83
2018-07-14T01:07:12.700Z,14.10
2018-07-14T01:09:41.251Z,12.27
2018-07-14T01:12:09.792Z,13.43
2018-07-14T01:14:38.319Z,9.47
2018-07-14T01:17:06.808Z,10.90
2018-07-14T01:19:35.376Z,10.23
2018-07-14T01:22:03.999Z,10.17
2018-07-14T01:24:32.447Z,10.87
2018-07-14T01:27:00.971Z,12.03
2018-07-14T01:29:29.513Z,12.77
2018-07-14T01:31:57.951Z,11.03
2018-07-14T01:34:26.569Z,11.10
2018-07-14T01:36:55.049Z,11.57
2018-07-14T01:39:23.633Z,12.00
2018-07-14T01:41:52.220Z,11.17
2018-07-14T01:44:20.778Z,12.83
2018-07-14T01:46:49.229Z,12.20
2018-07-14T01:49:17.713Z,10.50
2018-07-14T01:51:46.298Z,10.63
2018-07-14T01:54:14.786Z,13.60
2018-07-14T01:56:43.343Z,11.53
2018-07-14T01:59:11.820Z,13.00
2018-07-14T02:01:40.315Z,13.90
2018-07-14T02:04:08.889Z,11.77
2018-07-14T02:06:37.360Z,13.83
2018-07-14T02:09:06.068Z,12.90
2018-07-14T02:11:34.659Z,14.87
2018-07-14T02:14:03.203Z,13.97
2018-07-14T02:16:31.811Z,12.97
2018-07-14T02:19:00.298Z,13.30
2018-07-14T02:21:28.824Z,10.73
2018-07-14T02:23:57.369Z,10.90
2018-07-14T02:26:26.201Z,12.40
2018-07-14T02:28:54.737Z,11.97
2018-07-14T02:31:23.313Z,12.40
2018-07-14T02:33:51.834Z,16.87
2018-07-14T02:36:20.391Z,14.17
2018-07-14T02:38:48.983Z,13.93
2018-07-14T02:41:17.546Z,14.20
2018-07-14T02:43:46.077Z,12.27
2018-07-14T02:46:14.701Z,11.97
2018-07-14T02:48:43.187Z,15.03
2018-07-14T02:51:11.711Z,12.10
2018-07-14T02:53:40.266Z,11.97
2018-07-14T02:56:08.751Z,12.20
2018-07-14T02:58:37.286Z,12.90
2018-07-14T03:01:05.827Z,15.80
2018-07-14T03:03:34.305Z,14.57
2018-07-14T03:06:02.836Z,18.40
2018-07-14T03:08:31.415Z,12.93
2018-07-14T03:10:59.911Z,14.60
2018-07-14T03:13:28.399Z,11.77
2018-07-14T03:15:57.061Z,12.97
2018-07-14T03:18:25.537Z,14.20
2018-07-14T03:20:54.072Z,13.80
2018-07-14T03:23:22.856Z,13.17
2018-07-14T03:25:51.417Z,13.23
2018-07-14T03:28:19.997Z,12.50
2018-07-14T03:30:48.467Z,11.37
2018-07-14T03:33:17.099Z,12.40
2018-07-14T03:35:45.699Z,12.60
2018-07-14T03:40:46.513Z,12.47
2018-07-14T03:43:15.043Z,12.43
2018-07-14T03:45:43.636Z,12.83
2018-07-14T03:48:12.684Z,13.53
2018-07-14T03:50:41.248Z,12.73
2018-07-14T03:53:09.756Z,14.93
2018-07-14T03:55:38.316Z,16.47
2018-07-14T03:58:06.840Z,16.57
2018-07-14T04:00:35.363Z,12.37
2018-07-14T04:03:03.817Z,11.87
2018-07-14T04:05:32.363Z,12.70
2018-07-14T04:08:00.887Z,11.57
2018-07-14T04:10:29.364Z,11.23
2018-07-14T04:12:57.909Z,12.00
2018-07-14T04:15:26.455Z,11.83
2018-07-14T04:18:02.427Z,12.43
2018-07-14T04:20:30.933Z,10.77
2018-07-14T04:23:00.075Z,12.30
2018-07-14T04:25:28.633Z,11.27
2018-07-14T04:27:57.348Z,11.27
2018-07-14T04:30:26.014Z,11.70
2018-07-14T04:32:54.562Z,12.73
2018-07-14T04:35:23.266Z,11.10
2018-07-14T04:37:51.752Z,10.97
2018-07-14T04:40:20.296Z,11.20
2018-07-14T04:42:48.928Z,12.03
2018-07-14T04:45:17.469Z,14.47
2018-07-14T04:47:46.054Z,11.23
2018-07-14T04:50:14.595Z,11.37
2018-07-14T04:52:43.157Z,14.20
2018-07-14T04:55:11.653Z,13.10
2018-07-14T04:57:40.133Z,11.63
2018-07-14T05:00:08.680Z,10.53
2018-07-14T05:02:37.132Z,13.80
2018-07-14T05:05:05.674Z,9.60
2018-07-14T05:07:34.228Z,12.20
2018-07-14T05:10:02.783Z,11.03
2018-07-14T05:12:31.266Z,9.63
2018-07-14T05:14:59.792Z,10.57
2018-07-14T05:17:28.341Z,9.37
2018-07-14T05:19:56.872Z,10.63
2018-07-14T05:22:25.420Z,10.80
2018-07-14T05:24:53.902Z,10.10
2018-07-14T05:27:22.412Z,9.60
2018-07-14T05:29:50.936Z,8.90
2018-07-14T05:32:19.417Z,9.97
2018-07-14T05:34:47.957Z,8.83
2018-07-14T05:37:16.471Z,9.93
2018-07-14T05:39:45.003Z,9.33
2018-07-14T05:42:13.505Z,9.30
2018-07-14T05:44:41.985Z,9.33
2018-07-14T05:47:10.552Z,8.00
2018-07-14T05:49:39.096Z,8.63
2018-07-14T05:52:07.660Z,8.67
2018-07-14T05:54:36.372Z,10.93
2018-07-14T05:57:05.349Z,9.23
2018-07-14T05:59:33.852Z,9.83
2018-07-14T06:02:02.349Z,8.70
2018-07-14T06:04:30.885Z,9.63
2018-07-14T06:06:59.326Z,8.30
2018-07-14T06:09:27.873Z,8.40
2018-07-14T06:11:56.345Z,9.10
2018-07-14T06:14:24.808Z,8.50
2018-07-14T06:16:53.333Z,8.63
2018-07-14T06:19:21.902Z,9.23
2018-07-14T06:21:50.406Z,7.77
2018-07-14T06:24:18.924Z,7.83
2018-07-14T06:26:47.403Z,7.57
2018-07-14T06:29:16.115Z,9.57
2018-07-14T06:31:44.713Z,7.40
2018-07-14T06:34:13.267Z,8.93
2018-07-14T06:36:41.796Z,7.47
2018-07-14T06:39:10.464Z,8.13
2018-07-14T06:41:39.034Z,10.20
2018-07-14T06:44:07.563Z,8.77
2018-07-14T06:46:36.182Z,9.20
2018-07-14T06:49:04.667Z,6.63
2018-07-14T06:51:33.359Z,11.87
2018-07-14T06:54:01.846Z,13.07
2018-07-14T06:56:30.535Z,10.30
2018-07-14T06:58:59.541Z,7.67
2018-07-14T07:01:28.212Z,11.00
2018-07-14T07:03:56.810Z,10.13
2018-07-14T07:06:25.302Z,8.57
2018-07-14T07:08:53.887Z,9.10
2018-07-14T07:11:22.342Z,7.00
2018-07-14T07:13:51.096Z,7.77
2018-07-14T07:16:20.058Z,9.93
2018-07-14T07:18:48.554Z,9.30
2018-07-14T07:21:17.148Z,8.70
2018-07-14T07:23:45.723Z,7.30
2018-07-14T07:26:14.412Z,9.87
2018-07-14T07:28:42.979Z,6.37
2018-07-14T07:31:11.692Z,7.57
2018-07-14T07:33:40.143Z,9.50
2018-07-14T07:36:08.634Z,10.30
2018-07-14T07:38:37.145Z,10.53
2018-07-14T07:41:05.631Z,10.67
2018-07-14T07:43:34.118Z,7.60
2018-07-14T07:46:02.777Z,9.50
2018-07-14T07:48:31.476Z,10.73
2018-07-14T07:51:00.189Z,10.23
2018-07-14T07:53:28.981Z,11.50
2018-07-14T07:55:57.640Z,7.50
2018-07-14T07:58:26.233Z,10.37
2018-07-14T08:00:54.815Z,9.30
2018-07-14T08:03:23.436Z,10.37
2018-07-14T08:05:52.126Z,9.40
2018-07-14T08:08:20.684Z,6.73
2018-07-14T08:10:49.304Z,11.63
2018-07-14T08:13:17.992Z,6.43
2018-07-14T08:15:46.585Z,9.40
2018-07-14T08:18:15.235Z,12.30
2018-07-14T08:20:43.829Z,6.10
2018-07-14T08:23:12.506Z,9.60
2018-07-14T08:25:41.110Z,6.50
2018-07-14T08:28:09.625Z,7.43
2018-07-14T08:30:38.314Z,8.03
2018-07-14T08:33:06.902Z,10.80
2018-07-14T08:35:35.696Z,7.67
2018-07-14T08:38:04.201Z,9.17
2018-07-14T08:40:32.839Z,6.07
2018-07-14T08:43:01.444Z,7.43
2018-07-14T08:45:30.120Z,7.43
2018-07-14T08:47:58.739Z,6.27
2018-07-14T08:50:27.578Z,9.10
2018-07-14T08:52:56.172Z,7.97
2018-07-14T08:55:24.884Z,14.93
2018-07-14T08:57:53.572Z,9.43
2018-07-14T09:00:22.160Z,7.33
2018-07-14T09:02:50.778Z,10.73
2018-07-14T09:05:19.368Z,10.53
2018-07-14T09:07:47.955Z,13.30
2018-07-14T09:10:16.514Z,8.00
2018-07-14T09:12:45.029Z,10.20
2018-07-14T09:15:14.403Z,8.77
2018-07-14T09:17:42.892Z,8.57
2018-07-14T09:20:11.480Z,10.30
2018-07-14T09:22:40.099Z,8.47
2018-07-14T09:25:08.890Z,8.00
2018-07-14T09:27:37.449Z,12.40
2018-07-14T09:30:06.240Z,6.33
2018-07-14T09:32:34.705Z,9.97
2018-07-14T09:35:03.242Z,7.77
2018-07-14T09:37:32.035Z,11.47
2018-07-14T09:40:00.631Z,9.90
2018-07-14T09:42:29.108Z,9.00
2018-07-14T09:44:57.563Z,6.07
2018-07-14T09:47:26.081Z,6.67
2018-07-14T09:49:54.669Z,10.67
2018-07-14T09:52:23.839Z,7.70
2018-07-14T09:54:52.356Z,9.30
2018-07-14T09:57:21.148Z,10.67
2018-07-14T09:59:49.636Z,8.80
2018-07-14T10:02:18.326Z,9.73
2018-07-14T10:04:46.913Z,6.30
2018-07-14T10:07:15.368Z,9.67
2018-07-14T10:09:43.884Z,9.33
2018-07-14T10:12:12.444Z,11.63
2018-07-14T10:14:40.958Z,9.37
2018-07-14T10:17:09.786Z,8.87
2018-07-14T10:19:38.339Z,8.90
2018-07-14T10:22:06.880Z,6.60
2018-07-14T10:24:35.267Z,9.43
2018-07-14T10:27:03.796Z,8.67
2018-07-14T10:29:32.384Z,6.70
2018-07-14T10:32:01.048Z,7.43
2018-07-14T10:34:29.560Z,6.07
2018-07-14T10:36:58.426Z,6.70
2018-07-14T10:39:27.043Z,10.93
2018-07-14T10:41:55.631Z,7.03
2018-07-14T10:44:24.088Z,5.77
2018-07-14T10:46:52.834Z,5.60
2018-07-14T10:49:21.498Z,8.60
2018-07-14T10:51:50.291Z,7.30
2018-07-14T10:54:18.749Z,9.47
2018-07-14T10:56:47.263Z,7.63
2018-07-14T10:59:15.924Z,6.40
2018-07-14T11:01:44.542Z,5.90
2018-07-14T11:04:12.998Z,7.27
2018-07-14T11:06:41.589Z,6.90
2018-07-14T11:09:10.614Z,7.60
2018-07-14T11:11:39.507Z,5.95
2018-07-14T11:14:08.372Z,5.50
2018-07-14T11:16:37.195Z,4.58
2018-07-14T11:19:05.885Z,7.33
2018-07-14T11:21:34.543Z,5.00
2018-07-14T11:24:03.166Z,6.28
2018-07-14T11:26:31.957Z,5.50
2018-07-14T11:29:00.442Z,5.60
2018-07-14T11:31:29.033Z,5.55
2018-07-14T11:33:57.995Z,6.00
2018-07-14T11:36:26.688Z,12.53
2018-07-14T11:38:55.203Z,8.08
2018-07-14T11:41:23.895Z,8.07
2018-07-14T11:43:52.452Z,5.77
2018-07-14T11:46:21.040Z,5.80
2018-07-14T11:48:49.659Z,7.42
2018-07-14T11:51:18.320Z,7.55
2018-07-14T11:53:46.805Z,6.37
2018-07-14T11:56:15.294Z,5.17
2018-07-14T11:58:43.806Z,7.90
2018-07-14T12:01:12.604Z,5.20
2018-07-14T12:03:41.668Z,7.13
2018-07-14T12:06:10.261Z,8.30
2018-07-14T12:08:38.874Z,7.72
2018-07-14T12:11:07.727Z,6.00
2018-07-14T12:13:36.198Z,5.83
2018-07-14T12:16:04.729Z,4.90
2018-07-14T12:18:33.195Z,7.80
2018-07-14T12:21:01.600Z,4.20
2018-07-14T12:23:30.087Z,8.55
2018-07-14T12:25:58.510Z,3.77
2018-07-14T12:28:26.932Z,6.25
2018-07-14T12:30:55.423Z,9.80
2018-07-14T12:33:23.908Z,6.25
2018-07-14T12:35:52.635Z,6.37
2018-07-14T12:38:21.093Z,5.10
2018-07-14T12:40:49.753Z,4.15
2018-07-14T12:43:18.238Z,5.10
2018-07-14T12:45:46.740Z,4.57
2018-07-14T12:48:15.179Z,6.97
2018-07-14T12:50:44.677Z,9.17
2018-07-14T12:53:13.079Z,5.03
2018-07-14T12:55:41.496Z,7.00
2018-07-14T12:58:09.970Z,5.30
2018-07-14T13:00:38.407Z,6.27
2018-07-14T13:03:06.836Z,9.13
2018-07-14T13:05:35.379Z,5.13
2018-07-14T13:08:03.863Z,9.20
2018-07-14T13:10:32.350Z,6.33
2018-07-14T13:13:01.347Z,7.95
2018-07-14T13:15:29.907Z,7.35
2018-07-14T13:17:58.526Z,7.90
2018-07-14T13:20:27.288Z,6.83
2018-07-14T13:22:56.181Z,3.97
2018-07-14T13:25:24.876Z,3.27
2018-07-14T13:27:53.461Z,5.20
2018-07-14T13:30:22.078Z,5.50
2018-07-14T13:32:50.567Z,5.13
2018-07-14T13:35:19.560Z,5.97
2018-07-14T13:37:48.149Z,5.00
2018-07-14T13:40:16.727Z,8.87
2018-07-14T13:42:45.324Z,9.63
2018-07-14T13:45:14.009Z,6.73
2018-07-14T13:47:43.524Z,8.03
2018-07-14T13:50:12.180Z,8.27
2018-07-14T13:52:40.699Z,4.97
2018-07-14T13:55:09.384Z,9.57
2018-07-14T13:57:38.151Z,6.17
2018-07-14T14:00:07.179Z,6.80
2018-07-14T14:02:35.973Z,11.47
2018-07-14T14:05:04.661Z,6.13
2018-07-14T14:07:33.112Z,4.73
2018-07-14T14:10:01.634Z,5.77
2018-07-14T14:12:30.323Z,7.33
2018-07-14T14:14:58.912Z,7.67
2018-07-14T14:17:27.704Z,7.57
2018-07-14T14:19:56.383Z,7.30
2018-07-14T14:22:24.852Z,5.30
2018-07-14T14:24:53.474Z,5.60
2018-07-14T14:27:22.162Z,7.20
2018-07-14T14:29:50.650Z,5.70
2018-07-14T14:32:19.204Z,6.43
2018-07-14T14:34:47.925Z,5.97
2018-07-14T14:37:16.614Z,7.47
2018-07-14T14:39:45.307Z,7.07
2018-07-14T14:42:13.893Z,6.27
2018-07-14T14:44:42.464Z,6.03
2018-07-14T14:47:11.069Z,6.30
2018-07-14T14:49:39.728Z,8.17
2018-07-14T14:52:08.245Z,9.67
2018-07-14T14:54:36.950Z,5.60
2018-07-14T14:57:05.556Z,7.50
2018-07-14T14:59:34.184Z,4.70
2018-07-14T15:02:02.699Z,9.37
2018-07-14T15:04:31.492Z,8.23
2018-07-14T15:07:00.049Z,5.30
2018-07-14T15:09:28.635Z,6.40
2018-07-14T15:11:57.359Z,6.90
2018-07-14T15:14:26.020Z,7.93
2018-07-14T15:16:54.534Z,9.43
2018-07-14T15:19:23.196Z,8.27
2018-07-14T15:21:51.760Z,8.83
2018-07-14T15:24:20.452Z,6.90
2018-07-14T15:26:48.959Z,5.23
2018-07-14T15:29:17.576Z,5.57
2018-07-14T15:31:46.032Z,8.07
2018-07-14T15:34:14.620Z,10.00
2018-07-14T15:36:43.106Z,8.57
2018-07-14T15:39:11.621Z,9.07
2018-07-14T15:41:41.359Z,10.13
2018-07-14T15:44:10.608Z,7.03
2018-07-14T15:46:39.637Z,6.03
2018-07-14T15:49:09.180Z,6.40
2018-07-14T15:51:37.842Z,11.90
2018-07-14T15:54:06.709Z,10.53
2018-07-14T15:56:35.364Z,10.47
2018-07-14T15:59:04.275Z,12.57
2018-07-14T16:01:33.975Z,10.43
2018-07-14T16:04:02.516Z,9.17
2018-07-14T16:06:31.421Z,7.07
2018-07-14T16:08:59.998Z,8.63
2018-07-14T16:11:28.462Z,6.40
2018-07-14T16:13:57.456Z,7.83
2018-07-14T16:16:26.075Z,6.63
2018-07-14T16:18:55.214Z,7.93
2018-07-14T16:21:24.272Z,9.67
2018-07-14T16:23:52.928Z,6.93
2018-07-14T16:26:21.520Z,7.43
2018-07-14T16:28:50.464Z,5.67
2018-07-14T16:31:19.036Z,5.70
2018-07-14T16:33:47.449Z,5.50
2018-07-14T16:36:16.092Z,7.20
2018-07-14T16:38:44.693Z,6.83
2018-07-14T16:41:13.357Z,6.60
2018-07-14T16:43:41.938Z,6.83
2018-07-14T16:46:10.662Z,7.37
2018-07-14T16:48:39.222Z,6.97
2018-07-14T16:51:08.146Z,10.93
2018-07-14T16:53:36.706Z,7.37
2018-07-14T16:56:05.320Z,7.67
2018-07-14T16:58:33.973Z,5.73
2018-07-14T17:01:03.588Z,5.60
2018-07-14T17:03:32.293Z,7.67
2018-07-14T17:06:00.989Z,4.77
2018-07-14T17:08:30.177Z,4.73
2018-07-14T17:10:58.763Z,6.93
2018-07-14T17:13:27.347Z,5.87
2018-07-14T17:15:55.923Z,6.47
2018-07-14T17:18:24.411Z,4.67
2018-07-14T17:20:52.867Z,5.20
2018-07-14T17:23:21.630Z,4.50
2018-07-14T17:25:50.222Z,6.20
2018-07-14T17:28:18.776Z,4.30
2018-07-14T17:30:48.113Z,5.60
2018-07-14T17:33:16.672Z,7.20
2018-07-14T17:35:45.335Z,7.53
2018-07-14T17:38:13.876Z,4.80
2018-07-14T17:40:42.640Z,7.37
2018-07-14T17:43:11.359Z,4.90
2018-07-14T17:45:40.154Z,6.43
2018-07-14T17:48:09.251Z,7.10
2018-07-14T17:50:38.044Z,5.87
2018-07-14T17:53:06.632Z,8.10
2018-07-14T17:55:35.118Z,6.80
2018-07-14T17:58:03.705Z,8.57
2018-07-14T18:00:32.468Z,9.33
2018-07-14T18:03:01.096Z,6.70
2018-07-14T18:05:29.549Z,8.47
2018-07-14T18:07:58.164Z,8.27
2018-07-14T18:10:26.952Z,7.50
2018-07-14T18:12:55.616Z,7.23
2018-07-14T18:15:24.095Z,6.17
2018-07-14T18:17:52.618Z,7.47
2018-07-14T18:20:21.202Z,6.73
2018-07-14T18:22:49.893Z,8.33
2018-07-14T18:25:18.686Z,6.50
2018-07-14T18:27:47.140Z,10.23
2018-07-14T18:30:15.628Z,8.17
2018-07-14T18:32:44.146Z,8.03
2018-07-14T18:35:12.734Z,7.90
2018-07-14T18:37:41.392Z,8.97
2018-07-14T18:40:10.111Z,9.80
2018-07-14T18:42:38.600Z,8.57
2018-07-14T18:45:07.086Z,10.13
2018-07-14T18:47:35.670Z,8.60
2018-07-14T18:50:04.572Z,8.73
2018-07-14T18:52:33.241Z,7.27
2018-07-14T18:55:01.829Z,9.07
2018-07-14T18:57:30.305Z,12.27
2018-07-14T18:59:59.124Z,9.57
2018-07-14T19:02:27.814Z,9.13
2018-07-14T19:04:56.402Z,9.70
2018-07-14T19:07:24.992Z,10.43
2018-07-14T19:09:53.592Z,11.23
2018-07-14T19:12:22.397Z,22.70
2018-07-14T19:14:51.171Z,16.77
2018-07-14T19:17:20.469Z,12.40
2018-07-14T19:19:49.261Z,12.43
2018-07-14T19:22:17.751Z,10.23
2018-07-14T19:24:46.233Z,9.40
2018-07-14T19:27:14.925Z,8.77
2018-07-14T19:29:43.509Z,9.73
2018-07-14T19:32:12.302Z,11.33
2018-07-14T19:34:40.788Z,8.37
2018-07-14T19:37:09.204Z,8.83
2018-07-14T19:39:37.647Z,9.80
2018-07-14T19:42:06.151Z,9.87
2018-07-14T19:44:34.739Z,12.23
2018-07-14T19:47:03.279Z,11.60
2018-07-14T19:49:31.705Z,9.73
2018-07-14T19:52:00.122Z,9.30
2018-07-14T19:54:28.779Z,12.27
2018-07-14T19:56:57.263Z,14.10
2018-07-14T19:59:25.688Z,9.47
2018-07-14T20:01:54.109Z,9.70
2018-07-14T20:04:22.679Z,12.47
2018-07-14T20:06:51.307Z,9.70
2018-07-14T20:09:19.864Z,9.97
2018-07-14T20:11:48.340Z,11.47
2018-07-14T20:14:16.870Z,9.60
2018-07-14T20:16:45.662Z,10.90
2018-07-14T20:19:14.221Z,14.03
2018-07-14T20:21:42.844Z,9.70
2018-07-14T20:24:11.303Z,11.00
2018-07-14T20:26:40.015Z,11.53
2018-07-14T20:29:08.622Z,11.00
2018-07-14T20:31:37.191Z,12.87
2018-07-14T20:34:05.744Z,12.17
2018-07-14T20:36:34.236Z,12.33
2018-07-14T20:39:02.832Z,11.93
2018-07-14T20:41:31.462Z,10.63
2018-07-14T20:43:59.959Z,16.40
2018-07-14T20:46:28.515Z,11.67
2018-07-14T20:48:56.972Z,10.33
2018-07-14T20:51:25.567Z,14.50
2018-07-14T20:53:54.023Z,14.47
2018-07-14T20:56:22.454Z,12.07
2018-07-14T20:58:50.953Z,13.97
2018-07-14T21:01:19.535Z,13.87
2018-07-14T21:03:47.982Z,15.27
2018-07-14T21:06:16.511Z,13.50
2018-07-14T21:08:45.049Z,12.33
2018-07-14T21:11:13.541Z,11.17
2018-07-14T21:13:42.065Z,13.23
2018-07-14T21:16:10.549Z,14.03
2018-07-14T21:18:39.183Z,14.90
2018-07-14T21:21:08.143Z,12.40
2018-07-14T21:23:36.688Z,11.73
2018-07-14T21:26:05.349Z,13.40
2018-07-14T21:28:33.877Z,14.77
2018-07-14T21:31:02.383Z,12.57
2018-07-14T21:33:30.972Z,14.40
2018-07-14T21:35:59.535Z,15.63
2018-07-14T21:38:28.103Z,17.37
2018-07-14T21:40:56.645Z,14.83
2018-07-14T21:43:25.197Z,12.80
2018-07-14T21:45:53.996Z,16.17
2018-07-14T21:48:22.459Z,12.10
2018-07-14T21:50:51.085Z,15.67
2018-07-14T21:53:19.474Z,12.30
2018-07-14T21:55:48.033Z,13.50
2018-07-14T21:58:16.727Z,14.40
2018-07-14T22:00:50.580Z,11.93
2018-07-14T22:03:19.582Z,15.77
2018-07-14T22:05:48.625Z,13.43
2018-07-14T22:08:17.120Z,14.93
2018-07-14T22:10:45.652Z,15.67
2018-07-14T22:13:14.117Z,15.70
2018-07-14T22:15:42.657Z,14.50
2018-07-14T22:18:11.189Z,13.80
2018-07-14T22:20:39.824Z,13.83
2018-07-14T22:23:08.417Z,17.73
2018-07-14T22:25:36.954Z,14.67
2018-07-14T22:28:05.711Z,17.33
2018-07-14T22:30:34.229Z,13.23
2018-07-14T22:33:02.765Z,16.37
2018-07-14T22:35:31.349Z,16.50
2018-07-14T22:37:59.898Z,12.30
2018-07-14T22:40:28.405Z,13.77
2018-07-14T22:42:56.892Z,14.43
2018-07-14T22:45:25.354Z,15.00
2018-07-14T22:47:54.000Z,15.20
2018-07-14T22:50:22.570Z,13.43
2018-07-14T22:52:51.171Z,13.37
2018-07-14T22:55:19.668Z,16.03
2018-07-14T22:57:48.208Z,14.37
2018-07-14T23:00:16.819Z,14.80
2018-07-14T23:02:45.728Z,12.70
2018-07-14T23:05:14.225Z,13.50
2018-07-14T23:07:42.699Z,12.03
2018-07-14T23:10:11.255Z,15.70
2018-07-14T23:12:39.722Z,14.57
2018-07-14T23:15:08.241Z,13.23
2018-07-14T23:17:36.740Z,11.93
2018-07-14T23:20:05.244Z,12.30
2018-07-14T23:22:33.708Z,12.77
2018-07-14T23:25:02.236Z,12.87
2018-07-14T23:27:30.763Z,13.53
2018-07-14T23:29:59.285Z,11.83
2018-07-14T23:32:27.824Z,11.33
2018-07-14T23:34:56.320Z,12.30
2018-07-14T23:37:24.810Z,13.70
2018-07-14T23:39:53.345Z,12.07
2018-07-14T23:42:21.811Z,14.47
2018-07-14T23:44:50.281Z,14.87
2018-07-14T23:47:18.819Z,25.37
2018-07-14T23:49:47.291Z,14.30
2018-07-14T23:52:15.898Z,14.40
2018-07-14T23:54:44.430Z,16.13
2018-07-14T23:57:12.897Z,15.13
2018-07-14T23:59:41.370Z,12.63
